createdAt,value
2023-02-22T00:00:45.346Z,87.90
2023-02-22T00:01:45.214Z,87.59
2023-02-22T00:02:45.266Z,87.90
2023-02-22T00:03:45.190Z,87.90
2023-02-22T00:04:45.303Z,87.90
2023-02-22T00:05:45.158Z,88.00
2023-02-22T00:06:45.143Z,87.79
2023-02-22T00:07:45.156Z,87.90
2023-02-22T00:08:45.230Z,88.00
2023-02-22T00:09:45.147Z,87.90
2023-02-22T00:10:45.129Z,88.20
2023-02-22T00:11:45.090Z,88.00
2023-02-22T00:12:45.124Z,87.59
2023-02-22T00:13:45.142Z,87.59
2023-02-22T00:14:45.052Z,87.59
2023-02-22T00:15:45.074Z,87.90
2023-02-22T00:16:45.099Z,87.69
2023-02-22T00:17:45.037Z,87.94
2023-02-22T00:18:45.023Z,87.69
2023-02-22T00:19:45.000Z,87.90
2023-02-22T00:20:44.998Z,87.69
2023-02-22T00:21:45.029Z,87.84
2023-02-22T00:22:44.960Z,87.94
2023-02-22T00:23:44.957Z,87.79
2023-02-22T00:24:44.949Z,87.79
2023-02-22T00:25:44.931Z,88.20
2023-02-22T00:26:44.950Z,87.94
2023-02-22T00:27:44.955Z,88.00
2023-02-22T00:28:44.923Z,88.20
2023-02-22T00:29:44.888Z,88.20
2023-02-22T00:30:44.874Z,88.31
2023-02-22T00:31:44.927Z,88.45
2023-02-22T00:32:44.896Z,87.90
2023-02-22T00:33:44.909Z,87.69
2023-02-22T00:34:44.830Z,87.94
2023-02-22T00:35:44.810Z,87.79
2023-02-22T00:36:44.805Z,87.63
2023-02-22T00:37:44.836Z,88.04
2023-02-22T00:38:44.871Z,88.04
2023-02-22T00:39:44.809Z,87.94
2023-02-22T00:40:44.763Z,87.42
2023-02-22T00:41:44.934Z,87.42
2023-02-22T00:42:44.733Z,88.04
2023-02-22T00:43:44.816Z,87.73
2023-02-22T00:44:44.750Z,88.04
2023-02-22T00:45:44.800Z,87.84
2023-02-22T00:46:44.695Z,87.87
2023-02-22T00:47:44.686Z,87.98
2023-02-22T00:48:44.684Z,87.77
2023-02-22T00:49:44.656Z,88.08
2023-02-22T00:50:44.650Z,88.18
2023-02-22T00:51:44.667Z,88.08
2023-02-22T00:52:44.634Z,88.18
2023-02-22T00:53:44.675Z,87.87
2023-02-22T00:54:44.602Z,87.92
2023-02-22T00:55:44.599Z,88.02
2023-02-22T00:56:44.581Z,87.92
2023-02-22T00:57:44.631Z,88.23
2023-02-22T00:58:45.348Z,88.12
2023-02-22T00:59:44.546Z,88.12
2023-02-22T01:00:44.566Z,88.12
2023-02-22T01:01:44.528Z,88.33
2023-02-22T01:02:44.519Z,88.02
2023-02-22T01:03:44.537Z,87.92
2023-02-22T01:04:44.493Z,87.81
2023-02-22T01:05:44.502Z,88.33
2023-02-22T01:06:44.497Z,88.23
2023-02-22T01:07:44.452Z,88.17
2023-02-22T01:08:44.464Z,88.12
2023-02-22T01:09:44.481Z,87.96
2023-02-22T01:10:44.432Z,88.06
2023-02-22T01:11:44.416Z,88.47
2023-02-22T01:12:44.405Z,88.06
2023-02-22T01:13:44.397Z,88.06
2023-02-22T01:14:44.388Z,88.06
2023-02-22T01:15:44.401Z,87.96
2023-02-22T01:16:44.489Z,88.17
2023-02-22T01:17:44.360Z,88.10
2023-02-22T01:18:44.334Z,87.99
2023-02-22T01:19:44.321Z,88.20
2023-02-22T01:20:44.311Z,88.31
2023-02-22T01:21:44.330Z,87.69
2023-02-22T01:22:44.308Z,87.79
2023-02-22T01:23:44.281Z,87.69
2023-02-22T01:24:44.264Z,88.10
2023-02-22T01:25:44.255Z,88.10
2023-02-22T01:26:44.239Z,88.10
2023-02-22T01:27:44.300Z,87.99
2023-02-22T01:28:44.236Z,87.69
2023-02-22T01:29:44.210Z,88.41
2023-02-22T01:30:44.345Z,87.69
2023-02-22T01:31:44.285Z,87.79
2023-02-22T01:32:44.220Z,88.10
2023-02-22T01:33:44.194Z,87.79
2023-02-22T01:34:44.153Z,88.20
2023-02-22T01:35:44.150Z,87.75
2023-02-22T01:36:44.193Z,87.75
2023-02-22T01:37:44.121Z,87.54
2023-02-22T01:38:44.102Z,87.65
2023-02-22T01:39:44.148Z,88.10
2023-02-22T01:40:44.209Z,87.65
2023-02-22T01:41:44.076Z,87.96
2023-02-22T01:42:44.140Z,88.26
2023-02-22T01:43:44.062Z,88.06
2023-02-22T01:44:44.135Z,88.17
2023-02-22T01:45:44.084Z,88.37
2023-02-22T01:46:44.034Z,88.17
2023-02-22T01:47:44.003Z,88.17
2023-02-22T01:48:44.038Z,88.17
2023-02-22T01:49:43.994Z,88.06
2023-02-22T01:50:43.969Z,88.26
2023-02-22T01:51:44.037Z,88.26
2023-02-22T01:52:43.942Z,88.06
2023-02-22T01:53:43.943Z,87.92
2023-02-22T01:54:43.944Z,88.33
2023-02-22T01:55:43.928Z,88.33
2023-02-22T01:56:43.962Z,88.12
2023-02-22T01:57:43.899Z,88.53
2023-02-22T01:58:43.941Z,87.81
2023-02-22T01:59:43.871Z,87.60
2023-02-22T02:00:43.868Z,87.71
2023-02-22T02:01:43.862Z,87.71
2023-02-22T02:02:43.832Z,87.81
2023-02-22T02:03:43.902Z,87.92
2023-02-22T02:04:44.007Z,87.92
2023-02-22T02:05:43.793Z,88.57
2023-02-22T02:06:43.789Z,87.81
2023-02-22T02:07:43.786Z,87.81
2023-02-22T02:08:43.769Z,87.81
2023-02-22T02:09:43.816Z,87.81
2023-02-22T02:10:43.745Z,87.40
2023-02-22T02:11:43.751Z,87.85
2023-02-22T02:12:43.728Z,88.06
2023-02-22T02:13:43.732Z,87.75
2023-02-22T02:14:43.728Z,87.44
2023-02-22T02:15:43.722Z,87.71
2023-02-22T02:16:43.764Z,87.65
2023-02-22T02:17:43.679Z,87.54
2023-02-22T02:18:43.662Z,87.44
2023-02-22T02:19:43.646Z,87.75
2023-02-22T02:20:43.660Z,87.24
2023-02-22T02:21:43.657Z,87.54
2023-02-22T02:22:43.621Z,87.75
2023-02-22T02:23:43.699Z,87.54
2023-02-22T02:24:43.588Z,87.54
2023-02-22T02:25:43.606Z,87.75
2023-02-22T02:26:43.566Z,87.44
2023-02-22T02:27:43.615Z,87.44
2023-02-22T02:28:43.551Z,87.71
2023-02-22T02:29:43.533Z,87.34
2023-02-22T02:30:43.525Z,87.54
2023-02-22T02:31:43.628Z,87.65
2023-02-22T02:32:43.574Z,87.44
2023-02-22T02:33:43.531Z,87.65
2023-02-22T02:34:43.506Z,87.44
2023-02-22T02:35:43.463Z,87.71
2023-02-22T02:36:43.508Z,87.75
2023-02-22T02:37:43.445Z,87.71
2023-02-22T02:38:43.497Z,87.71
2023-02-22T02:39:43.464Z,87.81
2023-02-22T02:40:43.494Z,87.54
2023-02-22T02:41:43.416Z,87.60
2023-02-22T02:42:43.520Z,87.71
2023-02-22T02:43:43.390Z,87.54
2023-02-22T02:44:43.372Z,87.44
2023-02-22T02:45:43.395Z,87.40
2023-02-22T02:46:43.360Z,87.60
2023-02-22T02:47:43.329Z,87.54
2023-02-22T02:48:43.326Z,87.30
2023-02-22T02:49:43.313Z,87.24
2023-02-22T02:50:43.339Z,87.44
2023-02-22T02:51:43.305Z,87.40
2023-02-22T02:52:43.309Z,87.19
2023-02-22T02:53:43.268Z,87.24
2023-02-22T02:54:43.264Z,87.24
2023-02-22T02:55:43.281Z,87.13
2023-02-22T02:56:43.238Z,87.03
2023-02-22T02:57:43.268Z,87.03
2023-02-22T02:58:43.209Z,87.24
2023-02-22T02:59:43.202Z,87.34
2023-02-22T03:00:43.196Z,87.24
2023-02-22T03:01:43.266Z,87.24
2023-02-22T03:02:43.175Z,87.34
2023-02-22T03:03:43.202Z,87.24
2023-02-22T03:04:43.149Z,87.03
2023-02-22T03:05:43.143Z,86.93
2023-02-22T03:06:43.125Z,86.93
2023-02-22T03:07:43.313Z,86.93
2023-02-22T03:08:43.149Z,87.03
2023-02-22T03:09:43.267Z,86.93
2023-02-22T03:10:43.080Z,87.03
2023-02-22T03:11:43.128Z,86.93
2023-02-22T03:12:43.057Z,87.24
2023-02-22T03:13:43.063Z,87.24
2023-02-22T03:14:43.160Z,87.24
2023-02-22T03:15:43.092Z,87.24
2023-02-22T03:16:43.085Z,87.24
2023-02-22T03:17:42.998Z,87.13
2023-02-22T03:18:43.008Z,87.24
2023-02-22T03:19:42.981Z,87.13
2023-02-22T03:20:42.968Z,87.24
2023-02-22T03:21:42.996Z,86.93
2023-02-22T03:22:42.949Z,87.24
2023-02-22T03:23:43.012Z,87.24
2023-02-22T03:24:42.953Z,87.24
2023-02-22T03:25:42.913Z,86.87
2023-02-22T03:26:42.927Z,87.13
2023-02-22T03:27:42.924Z,86.61
2023-02-22T03:28:42.899Z,86.61
2023-02-22T03:29:42.936Z,86.97
2023-02-22T03:30:42.894Z,86.87
2023-02-22T03:31:42.846Z,87.03
2023-02-22T03:32:42.855Z,87.17
2023-02-22T03:33:42.914Z,87.17
2023-02-22T03:34:42.816Z,87.17
2023-02-22T03:35:42.886Z,86.97
2023-02-22T03:36:42.800Z,86.97
2023-02-22T03:37:42.811Z,86.97
2023-02-22T03:38:42.766Z,86.87
2023-02-22T03:39:42.811Z,86.87
2023-02-22T03:40:42.784Z,86.87
2023-02-22T03:41:42.736Z,87.01
2023-02-22T03:42:42.729Z,86.97
2023-02-22T03:43:42.711Z,87.01
2023-02-22T03:44:42.716Z,87.01
2023-02-22T03:45:42.728Z,87.01
2023-02-22T03:46:42.775Z,87.01
2023-02-22T03:47:42.684Z,87.21
2023-02-22T03:48:42.654Z,86.84
2023-02-22T03:49:42.644Z,86.74
2023-02-22T03:50:42.675Z,87.15
2023-02-22T03:51:42.666Z,87.05
2023-02-22T03:52:42.616Z,87.05
2023-02-22T03:53:42.600Z,86.63
2023-02-22T03:54:42.594Z,87.21
2023-02-22T03:55:42.580Z,87.15
2023-02-22T03:56:42.592Z,87.26
2023-02-22T03:57:42.617Z,87.56
2023-02-22T03:58:42.546Z,87.35
2023-02-22T03:59:42.532Z,87.77
2023-02-22T04:00:42.520Z,87.35
2023-02-22T04:01:42.514Z,87.77
2023-02-22T04:02:42.563Z,87.46
2023-02-22T04:03:42.516Z,87.32
2023-02-22T04:04:42.514Z,87.56
2023-02-22T04:05:42.465Z,87.73
2023-02-22T04:06:42.454Z,87.52
2023-02-22T04:07:42.463Z,87.56
2023-02-22T04:08:42.433Z,87.42
2023-02-22T04:09:42.625Z,87.73
2023-02-22T04:10:42.411Z,87.21
2023-02-22T04:11:42.416Z,87.21
2023-02-22T04:12:42.408Z,87.21
2023-02-22T04:13:42.375Z,87.21
2023-02-22T04:14:42.363Z,87.52
2023-02-22T04:15:42.446Z,87.11
2023-02-22T04:16:42.349Z,87.21
2023-02-22T04:17:42.329Z,87.32
2023-02-22T04:18:42.318Z,87.52
2023-02-22T04:19:42.307Z,87.11
2023-02-22T04:20:42.312Z,87.42
2023-02-22T04:21:42.330Z,87.32
2023-02-22T04:22:42.278Z,87.11
2023-02-22T04:23:42.267Z,87.52
2023-02-22T04:24:42.251Z,87.52
2023-02-22T04:25:42.246Z,87.11
2023-02-22T04:26:42.240Z,87.32
2023-02-22T04:27:42.239Z,87.21
2023-02-22T04:28:42.249Z,87.01
2023-02-22T04:29:42.203Z,86.49
2023-02-22T04:30:42.241Z,87.01
2023-02-22T04:31:42.213Z,87.21
2023-02-22T04:32:42.163Z,87.11
2023-02-22T04:33:42.183Z,87.32
2023-02-22T04:34:42.152Z,87.15
2023-02-22T04:35:42.141Z,86.94
2023-02-22T04:36:42.122Z,86.90
2023-02-22T04:37:42.107Z,86.94
2023-02-22T04:38:42.095Z,86.80
2023-02-22T04:39:42.279Z,87.26
2023-02-22T04:40:42.080Z,86.94
2023-02-22T04:41:42.061Z,86.94
2023-02-22T04:42:42.066Z,86.84
2023-02-22T04:43:42.076Z,86.84
2023-02-22T04:44:42.053Z,87.15
2023-02-22T04:45:42.043Z,86.84
2023-02-22T04:46:42.250Z,87.35
2023-02-22T04:47:41.992Z,86.74
2023-02-22T04:48:41.977Z,87.26
2023-02-22T04:49:41.971Z,87.29
2023-02-22T04:50:41.959Z,87.05
2023-02-22T04:51:42.025Z,86.94
2023-02-22T04:52:41.947Z,87.05
2023-02-22T04:53:41.938Z,87.35
2023-02-22T04:54:41.911Z,87.19
2023-02-22T04:55:41.917Z,87.50
2023-02-22T04:56:41.890Z,87.26
2023-02-22T04:57:41.960Z,87.46
2023-02-22T04:58:41.865Z,87.66
2023-02-22T04:59:41.854Z,87.77
2023-02-22T05:00:41.877Z,87.66
2023-02-22T05:01:41.849Z,87.66
2023-02-22T05:02:41.898Z,87.56
2023-02-22T05:03:41.841Z,87.66
2023-02-22T05:04:41.821Z,87.87
2023-02-22T05:05:41.796Z,87.35
2023-02-22T05:06:41.776Z,87.26
2023-02-22T05:07:41.771Z,87.26
2023-02-22T05:08:41.749Z,87.46
2023-02-22T05:09:41.769Z,87.87
2023-02-22T05:10:41.757Z,87.56
2023-02-22T05:11:41.739Z,87.46
2023-02-22T05:12:41.717Z,87.77
2023-02-22T05:13:41.780Z,87.46
2023-02-22T05:14:41.687Z,87.56
2023-02-22T05:15:41.852Z,87.87
2023-02-22T05:16:41.688Z,87.66
2023-02-22T05:17:41.649Z,87.56
2023-02-22T05:18:41.648Z,87.63
2023-02-22T05:19:41.642Z,87.77
2023-02-22T05:20:41.644Z,87.63
2023-02-22T05:21:41.640Z,87.66
2023-02-22T05:22:41.598Z,87.66
2023-02-22T05:23:41.596Z,87.66
2023-02-22T05:24:41.578Z,87.52
2023-02-22T05:25:41.570Z,87.56
2023-02-22T05:26:41.554Z,87.73
2023-02-22T05:27:41.568Z,87.46
2023-02-22T05:28:41.530Z,87.11
2023-02-22T05:29:41.526Z,87.63
2023-02-22T05:30:41.559Z,87.46
2023-02-22T05:31:41.552Z,87.66
2023-02-22T05:32:41.509Z,87.56
2023-02-22T05:33:41.551Z,87.73
2023-02-22T05:34:41.466Z,87.46
2023-02-22T05:35:41.454Z,87.56
2023-02-22T05:36:41.462Z,87.32
2023-02-22T05:37:41.432Z,86.94
2023-02-22T05:38:41.422Z,87.32
2023-02-22T05:39:41.487Z,87.35
2023-02-22T05:40:41.401Z,87.35
2023-02-22T05:41:41.388Z,87.05
2023-02-22T05:42:41.381Z,87.21
2023-02-22T05:43:41.376Z,86.63
2023-02-22T05:44:41.353Z,87.01
2023-02-22T05:45:41.415Z,86.90
2023-02-22T05:46:41.424Z,87.21
2023-02-22T05:47:41.352Z,87.21
2023-02-22T05:48:41.334Z,87.26
2023-02-22T05:49:41.299Z,87.21
2023-02-22T05:50:41.295Z,87.32
2023-02-22T05:51:41.338Z,86.90
2023-02-22T05:52:41.287Z,87.32
2023-02-22T05:53:41.256Z,86.80
2023-02-22T05:54:41.241Z,87.21
2023-02-22T05:55:41.235Z,87.32
2023-02-22T05:56:41.216Z,87.21
2023-02-22T05:57:41.311Z,87.21
2023-02-22T05:58:41.218Z,87.21
2023-02-22T05:59:41.200Z,87.01
2023-02-22T06:00:41.242Z,87.11
2023-02-22T06:01:41.186Z,87.21
2023-02-22T06:02:41.187Z,87.27
2023-02-22T06:03:41.173Z,86.97
2023-02-22T06:04:41.217Z,86.87
2023-02-22T06:05:41.222Z,86.97
2023-02-22T06:06:41.110Z,86.76
2023-02-22T06:07:41.115Z,86.87
2023-02-22T06:08:41.100Z,87.03
2023-02-22T06:09:41.142Z,86.93
2023-02-22T06:10:41.064Z,87.03
2023-02-22T06:11:41.058Z,87.03
2023-02-22T06:12:41.044Z,86.61
2023-02-22T06:13:41.036Z,87.13
2023-02-22T06:14:41.026Z,87.13
2023-02-22T06:15:41.067Z,87.09
2023-02-22T06:16:41.004Z,87.19
2023-02-22T06:17:40.983Z,87.19
2023-02-22T06:18:40.977Z,86.61
2023-02-22T06:19:40.969Z,86.61
2023-02-22T06:20:40.984Z,86.27
2023-02-22T06:21:41.118Z,86.37
2023-02-22T06:22:40.933Z,86.47
2023-02-22T06:23:40.929Z,86.37
2023-02-22T06:24:40.912Z,87.30
2023-02-22T06:25:40.895Z,86.54
2023-02-22T06:26:40.890Z,87.26
2023-02-22T06:27:40.966Z,87.19
2023-02-22T06:28:40.873Z,87.15
2023-02-22T06:29:40.854Z,87.26
2023-02-22T06:30:40.893Z,87.05
2023-02-22T06:31:41.071Z,87.26
2023-02-22T06:32:41.388Z,87.15
2023-02-22T06:33:40.918Z,87.26
2023-02-22T06:34:40.792Z,87.26
2023-02-22T06:35:40.838Z,86.23
2023-02-22T06:36:41.473Z,86.13
2023-02-22T06:37:40.798Z,86.02
2023-02-22T06:38:40.866Z,86.19
2023-02-22T06:39:41.068Z,86.08
2023-02-22T06:40:40.774Z,85.88
2023-02-22T06:41:40.777Z,85.98
2023-02-22T06:42:40.785Z,86.19
2023-02-22T06:43:40.694Z,85.98
2023-02-22T06:44:40.680Z,86.08
2023-02-22T06:45:40.865Z,86.08
2023-02-22T06:46:40.700Z,86.08
2023-02-22T06:47:40.692Z,86.08
2023-02-22T06:48:41.571Z,86.08
2023-02-22T06:49:40.727Z,86.19
2023-02-22T06:50:40.624Z,86.46
2023-02-22T06:51:41.494Z,86.35
2023-02-22T06:52:42.650Z,86.05
2023-02-22T06:53:40.639Z,85.74
2023-02-22T06:54:40.571Z,86.00
2023-02-22T06:55:40.562Z,86.15
2023-02-22T06:56:40.543Z,86.00
2023-02-22T06:57:41.551Z,85.70
2023-02-22T06:58:40.562Z,85.49
2023-02-22T06:59:40.539Z,86.11
2023-02-22T07:00:40.651Z,86.11
2023-02-22T07:01:41.543Z,85.08
2023-02-22T07:02:40.549Z,85.80
2023-02-22T07:03:40.671Z,86.00
2023-02-22T07:04:43.314Z,85.60
2023-02-22T07:05:40.528Z,85.60
2023-02-22T07:06:41.454Z,85.60
2023-02-22T07:07:40.473Z,85.70
2023-02-22T07:08:41.068Z,85.90
2023-02-22T07:09:40.460Z,85.70
2023-02-22T07:10:40.514Z,85.46
2023-02-22T07:11:41.879Z,85.14
2023-02-22T07:12:41.414Z,85.14
2023-02-22T07:13:40.435Z,84.94
2023-02-22T07:14:43.118Z,85.25
2023-02-22T07:15:43.970Z,85.46
2023-02-22T07:16:40.501Z,84.80
2023-02-22T07:17:40.346Z,85.52
2023-02-22T07:18:40.332Z,85.62
2023-02-22T07:19:40.315Z,85.41
2023-02-22T07:20:40.283Z,85.52
2023-02-22T07:21:40.337Z,85.72
2023-02-22T07:22:40.262Z,85.68
2023-02-22T07:23:40.266Z,85.38
2023-02-22T07:24:40.282Z,84.90
2023-02-22T07:25:40.266Z,85.00
2023-02-22T07:26:40.243Z,85.11
2023-02-22T07:27:40.274Z,84.90
2023-02-22T07:28:40.194Z,85.11
2023-02-22T07:29:40.208Z,85.52
2023-02-22T07:30:40.220Z,85.11
2023-02-22T07:31:40.162Z,84.86
2023-02-22T07:32:40.348Z,84.76
2023-02-22T07:33:40.186Z,85.17
2023-02-22T07:34:40.264Z,85.27
2023-02-22T07:35:40.125Z,85.06
2023-02-22T07:36:40.105Z,85.13
2023-02-22T07:37:40.134Z,85.03
2023-02-22T07:38:40.083Z,85.33
2023-02-22T07:39:40.214Z,85.85
2023-02-22T07:40:40.106Z,85.85
2023-02-22T07:41:40.066Z,85.13
2023-02-22T07:42:40.038Z,85.30
2023-02-22T07:43:40.952Z,85.39
2023-02-22T07:44:40.028Z,85.30
2023-02-22T07:45:40.162Z,85.30
2023-02-22T07:46:40.022Z,85.39
2023-02-22T07:47:39.992Z,84.95
2023-02-22T07:48:39.985Z,85.56
2023-02-22T07:49:39.975Z,85.05
2023-02-22T07:50:39.970Z,85.05
2023-02-22T07:51:39.957Z,85.15
2023-02-22T07:52:39.932Z,85.25
2023-02-22T07:53:39.916Z,85.01
2023-02-22T07:54:39.993Z,85.11
2023-02-22T07:55:39.894Z,85.25
2023-02-22T07:56:39.915Z,84.87
2023-02-22T07:57:39.922Z,85.31
2023-02-22T07:58:39.889Z,85.22
2023-02-22T07:59:39.883Z,85.22
2023-02-22T08:00:39.885Z,85.28
2023-02-22T08:01:40.531Z,84.97
2023-02-22T08:02:39.838Z,85.07
2023-02-22T08:03:40.180Z,85.38
2023-02-22T08:04:39.859Z,85.48
2023-02-22T08:05:39.798Z,85.24
2023-02-22T08:06:39.801Z,85.44
2023-02-22T08:07:39.764Z,85.14
2023-02-22T08:08:39.747Z,85.14
2023-02-22T08:09:39.902Z,85.03
2023-02-22T08:10:39.730Z,85.24
2023-02-22T08:11:39.706Z,85.14
2023-02-22T08:12:39.776Z,85.14
2023-02-22T08:13:39.684Z,85.20
2023-02-22T08:14:39.690Z,85.20
2023-02-22T08:15:39.709Z,85.30
2023-02-22T08:16:39.673Z,85.30
2023-02-22T08:17:39.649Z,85.40
2023-02-22T08:18:39.642Z,85.20
2023-02-22T08:19:39.708Z,85.40
2023-02-22T08:20:39.624Z,85.10
2023-02-22T08:21:39.620Z,85.16
2023-02-22T08:22:39.580Z,85.06
2023-02-22T08:23:39.635Z,84.65
2023-02-22T08:24:39.566Z,84.85
2023-02-22T08:25:39.553Z,85.02
2023-02-22T08:26:39.573Z,84.71
2023-02-22T08:27:39.576Z,84.61
2023-02-22T08:28:39.546Z,84.91
2023-02-22T08:29:39.539Z,84.71
2023-02-22T08:30:40.569Z,84.61
2023-02-22T08:31:39.511Z,84.71
2023-02-22T08:32:39.548Z,84.91
2023-02-22T08:33:39.532Z,84.88
2023-02-22T08:34:39.455Z,84.88
2023-02-22T08:35:39.465Z,84.98
2023-02-22T08:36:39.434Z,84.36
2023-02-22T08:37:39.418Z,84.74
2023-02-22T08:38:39.449Z,85.18
2023-02-22T08:39:39.464Z,84.63
2023-02-22T08:40:39.396Z,84.22
2023-02-22T08:41:39.377Z,84.74
2023-02-22T08:42:39.451Z,84.53
2023-02-22T08:43:39.357Z,84.59
2023-02-22T08:44:39.365Z,84.22
2023-02-22T08:45:39.386Z,84.28
2023-02-22T08:46:39.315Z,84.18
2023-02-22T08:47:39.948Z,84.49
2023-02-22T08:48:39.316Z,84.34
2023-02-22T08:49:39.277Z,84.28
2023-02-22T08:50:39.273Z,83.63
2023-02-22T08:51:39.273Z,83.63
2023-02-22T08:52:39.243Z,84.25
2023-02-22T08:53:39.231Z,83.84
2023-02-22T08:54:39.242Z,83.84
2023-02-22T08:55:39.213Z,84.14
2023-02-22T08:56:39.200Z,84.04
2023-02-22T08:57:39.338Z,83.84
2023-02-22T08:58:39.175Z,83.84
2023-02-22T08:59:39.164Z,83.84
2023-02-22T09:00:39.268Z,83.53
2023-02-22T09:01:39.633Z,83.49
2023-02-22T09:02:39.137Z,83.70
2023-02-22T09:03:39.575Z,84.00
2023-02-22T09:04:39.105Z,84.11
2023-02-22T09:05:39.192Z,84.20
2023-02-22T09:06:39.082Z,83.70
2023-02-22T09:07:39.075Z,84.11
2023-02-22T09:08:39.067Z,83.56
2023-02-22T09:09:39.107Z,83.56
2023-02-22T09:10:39.048Z,83.65
2023-02-22T09:11:39.029Z,83.35
2023-02-22T09:12:39.051Z,84.06
2023-02-22T09:13:39.026Z,83.25
2023-02-22T09:14:38.999Z,83.35
2023-02-22T09:15:40.279Z,82.94
2023-02-22T09:16:39.082Z,83.15
2023-02-22T09:17:38.984Z,82.94
2023-02-22T09:18:43.981Z,82.94
2023-02-22T09:19:39.951Z,83.15
2023-02-22T09:20:38.929Z,83.01
2023-02-22T09:21:38.984Z,83.21
2023-02-22T09:22:38.922Z,83.01
2023-02-22T09:23:38.900Z,83.21
2023-02-22T09:24:39.016Z,83.51
2023-02-22T09:25:38.914Z,83.86
2023-02-22T09:26:38.859Z,83.62
2023-02-22T09:27:38.884Z,83.86
2023-02-22T09:28:38.841Z,83.76
2023-02-22T09:29:38.845Z,83.65
2023-02-22T09:30:38.912Z,83.35
2023-02-22T09:31:38.938Z,83.86
2023-02-22T09:32:39.052Z,83.65
2023-02-22T09:33:39.544Z,83.65
2023-02-22T09:34:39.461Z,83.45
2023-02-22T09:35:38.864Z,83.65
2023-02-22T09:36:38.793Z,83.80
2023-02-22T09:37:38.769Z,84.00
2023-02-22T09:38:38.723Z,83.80
2023-02-22T09:39:38.859Z,83.90
2023-02-22T09:40:38.698Z,83.70
2023-02-22T09:41:38.701Z,84.00
2023-02-22T09:42:38.680Z,83.80
2023-02-22T09:43:38.665Z,84.00
2023-02-22T09:44:38.652Z,83.76
2023-02-22T09:45:38.720Z,83.76
2023-02-22T09:46:38.636Z,83.96
2023-02-22T09:47:38.734Z,83.56
2023-02-22T09:48:38.629Z,84.06
2023-02-22T09:49:38.638Z,82.94
2023-02-22T09:50:38.661Z,83.21
2023-02-22T09:51:38.601Z,83.51
2023-02-22T09:52:38.563Z,83.11
2023-02-22T09:53:38.574Z,83.01
2023-02-22T09:54:38.581Z,83.42
2023-02-22T09:55:38.532Z,83.62
2023-02-22T09:56:38.593Z,83.82
2023-02-22T09:57:38.533Z,83.51
2023-02-22T09:58:40.216Z,83.21
2023-02-22T09:59:38.486Z,83.01
2023-02-22T10:00:38.473Z,83.01
2023-02-22T10:01:38.485Z,83.21
2023-02-22T10:02:38.493Z,83.82
2023-02-22T10:03:38.508Z,83.92
2023-02-22T10:04:38.641Z,83.72
2023-02-22T10:05:38.454Z,83.82
2023-02-22T10:06:38.409Z,83.89
2023-02-22T10:07:38.452Z,83.37
2023-02-22T10:08:38.630Z,83.89
2023-02-22T10:09:39.122Z,83.89
2023-02-22T10:10:38.423Z,83.37
2023-02-22T10:11:38.668Z,84.03
2023-02-22T10:12:38.354Z,83.72
2023-02-22T10:13:38.327Z,84.03
2023-02-22T10:14:38.381Z,83.92
2023-02-22T10:15:38.359Z,83.68
2023-02-22T10:16:38.318Z,83.58
2023-02-22T10:17:38.303Z,83.37
2023-02-22T10:18:38.283Z,83.89
2023-02-22T10:19:38.262Z,82.93
2023-02-22T10:20:39.008Z,82.93
2023-02-22T10:21:38.325Z,83.09
2023-02-22T10:22:38.391Z,82.85
2023-02-22T10:23:38.226Z,82.54
2023-02-22T10:24:38.204Z,82.45
2023-02-22T10:25:38.223Z,82.10
2023-02-22T10:26:38.304Z,82.00
2023-02-22T10:27:38.230Z,82.31
2023-02-22T10:28:39.126Z,82.51
2023-02-22T10:29:38.999Z,82.20
2023-02-22T10:30:38.225Z,82.40
2023-02-22T10:31:39.063Z,82.26
2023-02-22T10:32:38.179Z,82.10
2023-02-22T10:33:38.248Z,82.31
2023-02-22T10:34:38.099Z,82.51
2023-02-22T10:35:38.101Z,82.20
2023-02-22T10:36:38.153Z,82.10
2023-02-22T10:37:38.204Z,82.40
2023-02-22T10:38:38.251Z,82.40
2023-02-22T10:39:38.148Z,82.40
2023-02-22T10:40:38.028Z,82.31
2023-02-22T10:41:38.039Z,82.71
2023-02-22T10:42:38.016Z,82.61
2023-02-22T10:43:38.014Z,82.75
2023-02-22T10:44:37.986Z,83.56
2023-02-22T10:45:38.029Z,83.15
2023-02-22T10:46:37.966Z,83.67
2023-02-22T10:47:37.948Z,83.67
2023-02-22T10:48:37.965Z,83.36
2023-02-22T10:49:38.046Z,83.22
2023-02-22T10:50:37.920Z,83.22
2023-02-22T10:51:37.939Z,83.42
2023-02-22T10:52:37.941Z,83.32
2023-02-22T10:53:37.919Z,83.22
2023-02-22T10:54:37.922Z,82.81
2023-02-22T10:55:40.520Z,82.92
2023-02-22T10:56:37.871Z,82.81
2023-02-22T10:57:37.883Z,83.01
2023-02-22T10:58:38.535Z,83.15
2023-02-22T10:59:37.844Z,83.01
2023-02-22T11:00:37.816Z,82.92
2023-02-22T11:01:37.921Z,83.06
2023-02-22T11:02:37.791Z,83.06
2023-02-22T11:03:37.853Z,82.75
2023-02-22T11:04:37.849Z,82.92
2023-02-22T11:05:37.751Z,82.75
2023-02-22T11:06:37.732Z,82.45
2023-02-22T11:07:37.731Z,82.81
2023-02-22T11:08:37.735Z,83.06
2023-02-22T11:09:37.846Z,83.87
2023-02-22T11:10:37.695Z,83.67
2023-02-22T11:11:37.725Z,83.36
2023-02-22T11:12:37.736Z,83.56
2023-02-22T11:13:37.686Z,83.76
2023-02-22T11:14:37.641Z,83.70
2023-02-22T11:15:38.623Z,84.11
2023-02-22T11:16:37.789Z,84.15
2023-02-22T11:17:37.614Z,83.95
2023-02-22T11:18:37.616Z,83.95
2023-02-22T11:19:37.614Z,84.05
2023-02-22T11:20:37.634Z,84.15
2023-02-22T11:21:37.738Z,83.84
2023-02-22T11:22:37.557Z,84.15
2023-02-22T11:23:38.508Z,83.81
2023-02-22T11:24:48.811Z,83.44
2023-02-22T11:25:39.953Z,83.40
2023-02-22T11:26:37.506Z,83.50
2023-02-22T11:27:37.661Z,83.50
2023-02-22T11:28:37.525Z,82.89
2023-02-22T11:29:37.558Z,82.99
2023-02-22T11:30:37.746Z,82.99
2023-02-22T11:31:37.811Z,82.68
2023-02-22T11:32:37.597Z,82.75
2023-02-22T11:33:37.467Z,82.79
2023-02-22T11:34:37.440Z,82.68
2023-02-22T11:35:37.441Z,82.79
2023-02-22T11:36:37.553Z,82.85
2023-02-22T11:37:38.955Z,82.89
2023-02-22T11:38:39.148Z,82.89
2023-02-22T11:39:39.000Z,83.50
2023-02-22T11:40:37.484Z,83.40
2023-02-22T11:41:37.400Z,83.91
2023-02-22T11:42:37.334Z,82.95
2023-02-22T11:43:37.369Z,82.79
2023-02-22T11:44:37.956Z,82.65
2023-02-22T11:45:44.111Z,82.54
2023-02-22T11:46:38.402Z,82.65
2023-02-22T11:47:38.022Z,82.45
2023-02-22T11:48:37.286Z,82.40
2023-02-22T11:49:37.994Z,82.10
2023-02-22T11:50:37.337Z,82.40
2023-02-22T11:51:39.484Z,82.40
2023-02-22T11:52:37.276Z,82.71
2023-02-22T11:53:38.176Z,82.71
2023-02-22T11:54:37.209Z,82.81
2023-02-22T11:55:43.255Z,82.81
2023-02-22T11:56:38.526Z,82.71
2023-02-22T11:57:37.151Z,82.81
2023-02-22T11:58:37.150Z,83.32
2023-02-22T11:59:37.138Z,83.42
2023-02-22T12:00:37.170Z,83.22
2023-02-22T12:01:38.198Z,83.46
2023-02-22T12:02:38.615Z,83.56
2023-02-22T12:03:37.320Z,83.56
2023-02-22T12:04:38.251Z,83.81
2023-02-22T12:05:37.067Z,83.56
2023-02-22T12:06:37.060Z,83.91
2023-02-22T12:07:37.058Z,83.81
2023-02-22T12:08:37.056Z,84.21
2023-02-22T12:09:37.023Z,84.31
2023-02-22T12:10:37.008Z,84.01
2023-02-22T12:11:37.027Z,84.11
2023-02-22T12:12:37.117Z,84.31
2023-02-22T12:13:37.129Z,83.91
2023-02-22T12:14:36.980Z,83.76
2023-02-22T12:15:36.983Z,83.76
2023-02-22T12:16:37.039Z,83.87
2023-02-22T12:17:36.931Z,83.76
2023-02-22T12:18:37.110Z,83.87
2023-02-22T12:19:36.910Z,83.42
2023-02-22T12:20:36.936Z,83.42
2023-02-22T12:21:36.881Z,82.92
2023-02-22T12:22:36.978Z,82.51
2023-02-22T12:23:36.873Z,82.92
2023-02-22T12:24:36.903Z,82.67
2023-02-22T12:25:36.904Z,83.01
2023-02-22T12:26:36.863Z,83.01
2023-02-22T12:27:36.845Z,83.46
2023-02-22T12:28:36.908Z,83.26
2023-02-22T12:29:36.856Z,83.60
2023-02-22T12:30:36.849Z,83.81
2023-02-22T12:31:36.997Z,83.81
2023-02-22T12:32:36.852Z,83.70
2023-02-22T12:33:36.786Z,83.91
2023-02-22T12:34:36.823Z,84.21
2023-02-22T12:35:36.775Z,84.11
2023-02-22T12:36:36.720Z,84.05
2023-02-22T12:37:36.711Z,83.84
2023-02-22T12:38:36.836Z,84.50
2023-02-22T12:39:51.824Z,84.19
2023-02-22T12:40:37.704Z,84.29
2023-02-22T12:41:36.660Z,84.15
2023-02-22T12:42:36.666Z,84.19
2023-02-22T12:43:37.515Z,84.19
2023-02-22T12:44:36.834Z,84.29
2023-02-22T12:45:36.639Z,83.82
2023-02-22T12:46:36.651Z,84.23
2023-02-22T12:47:36.703Z,84.03
2023-02-22T12:48:36.587Z,84.23
2023-02-22T12:49:36.579Z,84.58
2023-02-22T12:50:36.743Z,84.58
2023-02-22T12:51:36.649Z,84.37
2023-02-22T12:52:36.568Z,84.27